sensor_id;sensor_type;location;lat;lon;timestamp;temperature;humidity
9383;DHT22;4731;49.708;10.816;2023-07-20T00:00:09;17.20;99.90
9383;DHT22;4731;49.708;10.816;2023-07-20T00:02:38;17.20;99.90
9383;DHT22;4731;49.708;10.816;2023-07-20T00:05:05;17.20;99.90
9383;DHT22;4731;49.708;10.816;2023-07-20T00:07:32;18.20;99.90
9383;DHT22;4731;49.708;10.816;2023-07-20T00:09:58;17.10;99.90
9383;DHT22;4731;49.708;10.816;2023-07-20T00:12:25;17.10;99.90
9383;DHT22;4731;49.708;10.816;2023-07-20T00:14:53;17.20;99.90
9383;DHT22;4731;49.708;10.816;2023-07-20T00:17:20;17.10;99.90
9383;DHT22;4731;49.708;10.816;2023-07-20T00:19:47;17.10;99.90
9383;DHT22;4731;49.708;10.816;2023-07-20T00:22:14;18.50;99.90
9383;DHT22;4731;49.708;10.816;2023-07-20T00:24:41;17.00;99.90
9383;DHT22;4731;49.708;10.816;2023-07-20T00:27:07;17.00;99.90
9383;DHT22;4731;49.708;10.816;2023-07-20T00:29:34;17.00;99.90
9383;DHT22;4731;49.708;10.816;2023-07-20T00:32:03;17.30;99.90
9383;DHT22;4731;49.708;10.816;2023-07-20T00:34:31;17.00;99.90
9383;DHT22;4731;49.708;10.816;2023-07-20T00:36:58;17.70;99.90
9383;DHT22;4731;49.708;10.816;2023-07-20T00:39:25;17.00;99.90
9383;DHT22;4731;49.708;10.816;2023-07-20T00:41:52;17.00;99.90
9383;DHT22;4731;49.708;10.816;2023-07-20T00:44:19;17.00;99.90
9383;DHT22;4731;49.708;10.816;2023-07-20T00:46:46;17.10;99.90
9383;DHT22;4731;49.708;10.816;2023-07-20T00:49:15;17.10;99.90
9383;DHT22;4731;49.708;10.816;2023-07-20T00:51:42;17.10;99.90
9383;DHT22;4731;49.708;10.816;2023-07-20T00:54:09;17.20;99.90
9383;DHT22;4731;49.708;10.816;2023-07-20T00:56:36;18.40;99.90
9383;DHT22;4731;49.708;10.816;2023-07-20T00:59:03;17.10;99.90
9383;DHT22;4731;49.708;10.816;2023-07-20T01:01:29;19.30;99.90
9383;DHT22;4731;49.708;10.816;2023-07-20T01:03:56;19.60;99.90
9383;DHT22;4731;49.708;10.816;2023-07-20T01:06:33;17.10;99.90
9383;DHT22;4731;49.708;10.816;2023-07-20T01:09:11;19.50;99.90
9383;DHT22;4731;49.708;10.816;2023-07-20T01:11:45;19.80;99.90
9383;DHT22;4731;49.708;10.816;2023-07-20T01:14:15;17.10;99.90
9383;DHT22;4731;49.708;10.816;2023-07-20T01:16:43;18.20;99.90
9383;DHT22;4731;49.708;10.816;2023-07-20T01:19:10;17.00;99.90
9383;DHT22;4731;49.708;10.816;2023-07-20T01:21:44;17.20;99.90
9383;DHT22;4731;49.708;10.816;2023-07-20T01:24:49;17.20;99.90
9383;DHT22;4731;49.708;10.816;2023-07-20T01:30:51;17.30;99.90
9383;DHT22;4731;49.708;10.816;2023-07-20T01:33:21;17.40;99.90
9383;DHT22;4731;49.708;10.816;2023-07-20T01:35:53;17.30;99.90
9383;DHT22;4731;49.708;10.816;2023-07-20T01:38:21;17.30;99.90
9383;DHT22;4731;49.708;10.816;2023-07-20T01:40:50;17.80;99.90
9383;DHT22;4731;49.708;10.816;2023-07-20T01:43:17;18.10;99.90
9383;DHT22;4731;49.708;10.816;2023-07-20T01:45:44;18.30;99.90
9383;DHT22;4731;49.708;10.816;2023-07-20T01:48:10;17.10;99.90
9383;DHT22;4731;49.708;10.816;2023-07-20T01:50:39;17.20;99.90
9383;DHT22;4731;49.708;10.816;2023-07-20T01:53:05;19.30;99.90
9383;DHT22;4731;49.708;10.816;2023-07-20T01:55:32;17.00;99.90
9383;DHT22;4731;49.708;10.816;2023-07-20T01:57:59;17.00;99.90
9383;DHT22;4731;49.708;10.816;2023-07-20T02:00:27;17.30;99.90
9383;DHT22;4731;49.708;10.816;2023-07-20T02:02:53;18.80;99.90
9383;DHT22;4731;49.708;10.816;2023-07-20T02:05:20;16.80;99.90
9383;DHT22;4731;49.708;10.816;2023-07-20T02:07:48;16.80;99.90
9383;DHT22;4731;49.708;10.816;2023-07-20T02:10:15;18.90;99.90
9383;DHT22;4731;49.708;10.816;2023-07-20T02:12:42;16.70;99.90
9383;DHT22;4731;49.708;10.816;2023-07-20T02:15:10;16.70;99.90
9383;DHT22;4731;49.708;10.816;2023-07-20T02:17:38;16.70;99.90
9383;DHT22;4731;49.708;10.816;2023-07-20T02:20:07;16.70;99.90
9383;DHT22;4731;49.708;10.816;2023-07-20T02:22:35;16.80;99.90
9383;DHT22;4731;49.708;10.816;2023-07-20T02:25:04;15.90;99.90
9383;DHT22;4731;49.708;10.816;2023-07-20T02:27:31;16.70;99.90
9383;DHT22;4731;49.708;10.816;2023-07-20T02:30:00;16.60;99.90
9383;DHT22;4731;49.708;10.816;2023-07-20T02:32:30;16.70;99.90
9383;DHT22;4731;49.708;10.816;2023-07-20T02:34:58;16.60;99.90
9383;DHT22;4731;49.708;10.816;2023-07-20T02:37:25;16.60;99.90
9383;DHT22;4731;49.708;10.816;2023-07-20T02:39:51;16.80;99.90
9383;DHT22;4731;49.708;10.816;2023-07-20T02:42:20;16.60;99.90
9383;DHT22;4731;49.708;10.816;2023-07-20T02:44:48;16.50;99.90
9383;DHT22;4731;49.708;10.816;2023-07-20T02:47:15;16.50;99.90
9383;DHT22;4731;49.708;10.816;2023-07-20T02:49:41;18.00;99.90
9383;DHT22;4731;49.708;10.816;2023-07-20T02:52:09;16.40;99.90
9383;DHT22;4731;49.708;10.816;2023-07-20T02:54:36;16.50;99.90
9383;DHT22;4731;49.708;10.816;2023-07-20T02:57:03;17.70;99.90
9383;DHT22;4731;49.708;10.816;2023-07-20T02:59:31;16.40;99.90
9383;DHT22;4731;49.708;10.816;2023-07-20T03:01:57;16.40;99.90
9383;DHT22;4731;49.708;10.816;2023-07-20T03:04:26;16.30;99.90
9383;DHT22;4731;49.708;10.816;2023-07-20T03:06:53;16.30;99.90
9383;DHT22;4731;49.708;10.816;2023-07-20T03:09:19;18.70;99.90
9383;DHT22;4731;49.708;10.816;2023-07-20T03:11:46;17.40;99.90
9383;DHT22;4731;49.708;10.816;2023-07-20T03:14:13;16.30;99.90
9383;DHT22;4731;49.708;10.816;2023-07-20T03:16:41;16.20;99.90
9383;DHT22;4731;49.708;10.816;2023-07-20T03:19:08;16.20;99.90
9383;DHT22;4731;49.708;10.816;2023-07-20T03:21:35;16.20;99.90
9383;DHT22;4731;49.708;10.816;2023-07-20T03:24:06;16.20;99.90
9383;DHT22;4731;49.708;10.816;2023-07-20T03:26:33;16.20;99.90
9383;DHT22;4731;49.708;10.816;2023-07-20T03:29:00;18.10;99.90
9383;DHT22;4731;49.708;10.816;2023-07-20T03:31:27;16.20;99.90
9383;DHT22;4731;49.708;10.816;2023-07-20T03:33:55;16.20;99.90
9383;DHT22;4731;49.708;10.816;2023-07-20T03:36:22;16.10;99.90
9383;DHT22;4731;49.708;10.816;2023-07-20T03:38:48;16.10;99.90
9383;DHT22;4731;49.708;10.816;2023-07-20T03:41:15;16.10;99.90
9383;DHT22;4731;49.708;10.816;2023-07-20T03:43:42;16.00;99.90
9383;DHT22;4731;49.708;10.816;2023-07-20T03:46:09;16.00;99.90
9383;DHT22;4731;49.708;10.816;2023-07-20T03:48:35;17.20;99.90
9383;DHT22;4731;49.708;10.816;2023-07-20T03:51:04;16.00;99.90
9383;DHT22;4731;49.708;10.816;2023-07-20T03:53:30;16.00;99.90
9383;DHT22;4731;49.708;10.816;2023-07-20T03:55:57;17.70;99.90
9383;DHT22;4731;49.708;10.816;2023-07-20T03:58:24;16.00;99.90
9383;DHT22;4731;49.708;10.816;2023-07-20T04:00:51;17.00;99.90
9383;DHT22;4731;49.708;10.816;2023-07-20T04:03:19;16.40;99.90
9383;DHT22;4731;49.708;10.816;2023-07-20T04:05:46;18.00;99.90
9383;DHT22;4731;49.708;10.816;2023-07-20T04:08:14;16.10;99.90
9383;DHT22;4731;49.708;10.816;2023-07-20T04:10:43;14.60;99.90
9383;DHT22;4731;49.708;10.816;2023-07-20T04:13:10;17.60;99.90
9383;DHT22;4731;49.708;10.816;2023-07-20T04:15:37;16.00;99.90
9383;DHT22;4731;49.708;10.816;2023-07-20T04:18:04;16.00;99.90
9383;DHT22;4731;49.708;10.816;2023-07-20T04:20:31;16.00;99.90
9383;DHT22;4731;49.708;10.816;2023-07-20T04:22:58;16.00;99.90
9383;DHT22;4731;49.708;10.816;2023-07-20T04:25:26;16.10;99.90
9383;DHT22;4731;49.708;10.816;2023-07-20T04:27:52;16.00;99.90
9383;DHT22;4731;49.708;10.816;2023-07-20T04:30:21;16.00;99.90
9383;DHT22;4731;49.708;10.816;2023-07-20T04:32:48;16.00;99.90
9383;DHT22;4731;49.708;10.816;2023-07-20T04:35:17;17.70;99.90
9383;DHT22;4731;49.708;10.816;2023-07-20T04:37:44;16.10;99.90
9383;DHT22;4731;49.708;10.816;2023-07-20T04:40:12;17.60;99.90
9383;DHT22;4731;49.708;10.816;2023-07-20T04:42:41;16.20;99.90
9383;DHT22;4731;49.708;10.816;2023-07-20T04:45:08;16.20;99.90
9383;DHT22;4731;49.708;10.816;2023-07-20T04:47:35;16.20;99.90
9383;DHT22;4731;49.708;10.816;2023-07-20T04:50:02;16.40;99.90
9383;DHT22;4731;49.708;10.816;2023-07-20T04:52:29;16.40;99.90
9383;DHT22;4731;49.708;10.816;2023-07-20T04:54:56;18.20;99.90
9383;DHT22;4731;49.708;10.816;2023-07-20T04:57:23;16.50;99.90
9383;DHT22;4731;49.708;10.816;2023-07-20T04:59:52;16.60;99.90
9383;DHT22;4731;49.708;10.816;2023-07-20T05:02:18;18.50;99.90
9383;DHT22;4731;49.708;10.816;2023-07-20T05:04:46;16.60;99.90
9383;DHT22;4731;49.708;10.816;2023-07-20T05:07:12;16.50;99.90
9383;DHT22;4731;49.708;10.816;2023-07-20T05:09:39;16.60;99.90
9383;DHT22;4731;49.708;10.816;2023-07-20T05:12:06;18.10;99.90
9383;DHT22;4731;49.708;10.816;2023-07-20T05:14:33;16.90;99.90
9383;DHT22;4731;49.708;10.816;2023-07-20T05:17:01;19.20;99.90
9383;DHT22;4731;49.708;10.816;2023-07-20T05:19:28;17.10;99.90
9383;DHT22;4731;49.708;10.816;2023-07-20T05:21:55;17.20;99.90
9383;DHT22;4731;49.708;10.816;2023-07-20T05:24:22;17.50;99.90
9383;DHT22;4731;49.708;10.816;2023-07-20T05:26:49;17.50;99.90
9383;DHT22;4731;49.708;10.816;2023-07-20T05:29:15;19.60;99.90
9383;DHT22;4731;49.708;10.816;2023-07-20T05:31:42;17.70;99.90
9383;DHT22;4731;49.708;10.816;2023-07-20T05:34:10;17.80;99.90
9383;DHT22;4731;49.708;10.816;2023-07-20T05:36:37;17.90;99.90
9383;DHT22;4731;49.708;10.816;2023-07-20T05:39:03;18.00;99.90
9383;DHT22;4731;49.708;10.816;2023-07-20T05:41:30;18.20;99.90
9383;DHT22;4731;49.708;10.816;2023-07-20T05:43:57;18.30;99.90
9383;DHT22;4731;49.708;10.816;2023-07-20T05:46:24;18.20;99.90
9383;DHT22;4731;49.708;10.816;2023-07-20T05:48:51;18.50;99.90
9383;DHT22;4731;49.708;10.816;2023-07-20T05:51:19;18.50;99.90
9383;DHT22;4731;49.708;10.816;2023-07-20T05:53:46;19.90;99.90
9383;DHT22;4731;49.708;10.816;2023-07-20T05:56:13;18.80;99.90
9383;DHT22;4731;49.708;10.816;2023-07-20T05:58:40;18.90;99.90
9383;DHT22;4731;49.708;10.816;2023-07-20T06:01:07;19.00;99.90
9383;DHT22;4731;49.708;10.816;2023-07-20T06:03:34;19.20;99.90
9383;DHT22;4731;49.708;10.816;2023-07-20T06:06:01;19.10;99.90
9383;DHT22;4731;49.708;10.816;2023-07-20T06:08:31;19.30;99.90
9383;DHT22;4731;49.708;10.816;2023-07-20T06:10:57;19.40;99.90
9383;DHT22;4731;49.708;10.816;2023-07-20T06:13:24;20.10;99.90
9383;DHT22;4731;49.708;10.816;2023-07-20T06:15:51;19.60;99.90
9383;DHT22;4731;49.708;10.816;2023-07-20T06:18:18;19.80;99.90
9383;DHT22;4731;49.708;10.816;2023-07-20T06:20:49;19.80;99.90
9383;DHT22;4731;49.708;10.816;2023-07-20T06:23:16;19.70;99.90
9383;DHT22;4731;49.708;10.816;2023-07-20T06:25:44;20.00;99.90
9383;DHT22;4731;49.708;10.816;2023-07-20T06:28:11;20.10;99.90
9383;DHT22;4731;49.708;10.816;2023-07-20T06:30:38;20.10;99.90
9383;DHT22;4731;49.708;10.816;2023-07-20T06:33:05;20.20;99.90
9383;DHT22;4731;49.708;10.816;2023-07-20T06:35:33;20.20;99.90
9383;DHT22;4731;49.708;10.816;2023-07-20T06:38:00;19.90;99.90
9383;DHT22;4731;49.708;10.816;2023-07-20T06:40:27;19.80;99.90
9383;DHT22;4731;49.708;10.816;2023-07-20T06:42:55;21.40;99.90
9383;DHT22;4731;49.708;10.816;2023-07-20T06:45:21;20.00;99.90
9383;DHT22;4731;49.708;10.816;2023-07-20T06:47:48;20.40;99.90
9383;DHT22;4731;49.708;10.816;2023-07-20T06:50:16;20.50;99.90
9383;DHT22;4731;49.708;10.816;2023-07-20T06:52:43;20.70;99.90
9383;DHT22;4731;49.708;10.816;2023-07-20T06:55:11;21.00;99.90
9383;DHT22;4731;49.708;10.816;2023-07-20T06:57:38;21.00;99.90
9383;DHT22;4731;49.708;10.816;2023-07-20T07:00:08;21.40;99.90
9383;DHT22;4731;49.708;10.816;2023-07-20T07:02:34;21.40;99.90
9383;DHT22;4731;49.708;10.816;2023-07-20T07:05:01;21.50;99.90
9383;DHT22;4731;49.708;10.816;2023-07-20T07:07:28;21.80;99.90
9383;DHT22;4731;49.708;10.816;2023-07-20T07:09:55;23.80;99.90
9383;DHT22;4731;49.708;10.816;2023-07-20T07:12:23;19.40;99.90
9383;DHT22;4731;49.708;10.816;2023-07-20T07:14:49;21.90;99.90
9383;DHT22;4731;49.708;10.816;2023-07-20T07:17:18;22.10;99.90
9383;DHT22;4731;49.708;10.816;2023-07-20T07:19:44;22.20;99.90
9383;DHT22;4731;49.708;10.816;2023-07-20T07:22:11;22.10;99.90
9383;DHT22;4731;49.708;10.816;2023-07-20T07:24:39;22.30;99.90
9383;DHT22;4731;49.708;10.816;2023-07-20T07:27:08;22.70;99.90
9383;DHT22;4731;49.708;10.816;2023-07-20T07:29:35;22.50;99.90
9383;DHT22;4731;49.708;10.816;2023-07-20T07:32:03;22.20;99.90
9383;DHT22;4731;49.708;10.816;2023-07-20T07:34:32;21.80;99.90
9383;DHT22;4731;49.708;10.816;2023-07-20T07:37:00;21.70;99.90
9383;DHT22;4731;49.708;10.816;2023-07-20T07:39:27;21.80;99.90
9383;DHT22;4731;49.708;10.816;2023-07-20T07:41:55;21.80;99.90
9383;DHT22;4731;49.708;10.816;2023-07-20T07:44:22;22.20;99.90
9383;DHT22;4731;49.708;10.816;2023-07-20T07:46:49;22.50;99.90
9383;DHT22;4731;49.708;10.816;2023-07-20T07:49:16;22.60;99.90
9383;DHT22;4731;49.708;10.816;2023-07-20T07:51:45;22.90;99.90
9383;DHT22;4731;49.708;10.816;2023-07-20T07:54:14;23.10;99.90
9383;DHT22;4731;49.708;10.816;2023-07-20T07:56:41;23.40;99.90
9383;DHT22;4731;49.708;10.816;2023-07-20T07:59:08;23.40;99.90
9383;DHT22;4731;49.708;10.816;2023-07-20T08:01:35;23.30;99.90
9383;DHT22;4731;49.708;10.816;2023-07-20T08:04:02;23.70;99.90
9383;DHT22;4731;49.708;10.816;2023-07-20T08:06:29;23.70;99.90
9383;DHT22;4731;49.708;10.816;2023-07-20T08:08:58;24.00;99.90
9383;DHT22;4731;49.708;10.816;2023-07-20T08:11:25;23.70;99.90
9383;DHT22;4731;49.708;10.816;2023-07-20T08:13:52;23.50;99.90
9383;DHT22;4731;49.708;10.816;2023-07-20T08:16:18;23.30;99.90
9383;DHT22;4731;49.708;10.816;2023-07-20T08:18:45;23.30;99.90
9383;DHT22;4731;49.708;10.816;2023-07-20T08:21:12;23.40;99.90
9383;DHT22;4731;49.708;10.816;2023-07-20T08:23:39;23.90;99.90
9383;DHT22;4731;49.708;10.816;2023-07-20T08:26:07;24.10;99.90
9383;DHT22;4731;49.708;10.816;2023-07-20T08:28:34;24.40;99.90
9383;DHT22;4731;49.708;10.816;2023-07-20T08:31:01;24.60;99.90
9383;DHT22;4731;49.708;10.816;2023-07-20T08:33:28;24.70;99.90
9383;DHT22;4731;49.708;10.816;2023-07-20T08:35:59;24.90;99.90
9383;DHT22;4731;49.708;10.816;2023-07-20T08:38:26;24.90;99.90
9383;DHT22;4731;49.708;10.816;2023-07-20T08:40:53;24.80;99.90
9383;DHT22;4731;49.708;10.816;2023-07-20T08:43:23;25.10;99.90
9383;DHT22;4731;49.708;10.816;2023-07-20T08:45:52;25.00;99.90
9383;DHT22;4731;49.708;10.816;2023-07-20T08:48:20;24.80;99.90
9383;DHT22;4731;49.708;10.816;2023-07-20T08:50:47;24.90;99.90
9383;DHT22;4731;49.708;10.816;2023-07-20T08:53:15;24.80;99.90
9383;DHT22;4731;49.708;10.816;2023-07-20T08:55:44;25.00;99.90
9383;DHT22;4731;49.708;10.816;2023-07-20T08:58:13;25.30;99.90
9383;DHT22;4731;49.708;10.816;2023-07-20T09:00:42;25.20;99.90
9383;DHT22;4731;49.708;10.816;2023-07-20T09:03:10;24.90;99.90
9383;DHT22;4731;49.708;10.816;2023-07-20T09:05:37;25.40;99.90
9383;DHT22;4731;49.708;10.816;2023-07-20T09:08:05;25.80;99.90
9383;DHT22;4731;49.708;10.816;2023-07-20T09:10:32;25.90;99.90
9383;DHT22;4731;49.708;10.816;2023-07-20T09:12:59;26.30;99.90
9383;DHT22;4731;49.708;10.816;2023-07-20T09:15:25;26.60;99.90
9383;DHT22;4731;49.708;10.816;2023-07-20T09:17:54;26.50;99.90
9383;DHT22;4731;49.708;10.816;2023-07-20T09:20:21;26.50;99.90
9383;DHT22;4731;49.708;10.816;2023-07-20T09:22:50;26.40;99.90
9383;DHT22;4731;49.708;10.816;2023-07-20T09:25:18;25.80;99.90
9383;DHT22;4731;49.708;10.816;2023-07-20T09:27:46;25.00;99.90
9383;DHT22;4731;49.708;10.816;2023-07-20T09:30:14;25.10;99.90
9383;DHT22;4731;49.708;10.816;2023-07-20T09:32:43;25.30;99.90
9383;DHT22;4731;49.708;10.816;2023-07-20T09:35:15;25.60;99.90
9383;DHT22;4731;49.708;10.816;2023-07-20T09:37:50;25.90;99.90
9383;DHT22;4731;49.708;10.816;2023-07-20T09:40:18;26.20;99.90
9383;DHT22;4731;49.708;10.816;2023-07-20T09:42:45;25.50;99.90
9383;DHT22;4731;49.708;10.816;2023-07-20T09:45:12;25.50;99.90
9383;DHT22;4731;49.708;10.816;2023-07-20T09:47:40;26.00;99.90
9383;DHT22;4731;49.708;10.816;2023-07-20T09:50:08;26.30;99.90
9383;DHT22;4731;49.708;10.816;2023-07-20T09:52:40;26.40;99.90
9383;DHT22;4731;49.708;10.816;2023-07-20T09:55:10;26.30;99.90
9383;DHT22;4731;49.708;10.816;2023-07-20T09:57:37;26.60;99.90
9383;DHT22;4731;49.708;10.816;2023-07-20T10:00:05;27.20;99.90
9383;DHT22;4731;49.708;10.816;2023-07-20T10:02:42;27.70;99.90
9383;DHT22;4731;49.708;10.816;2023-07-20T10:05:12;27.20;99.90
9383;DHT22;4731;49.708;10.816;2023-07-20T10:07:44;26.90;99.90
9383;DHT22;4731;49.708;10.816;2023-07-20T10:10:14;26.70;99.90
9383;DHT22;4731;49.708;10.816;2023-07-20T10:12:41;26.50;99.90
9383;DHT22;4731;49.708;10.816;2023-07-20T10:15:11;25.90;99.90
9383;DHT22;4731;49.708;10.816;2023-07-20T10:17:47;25.70;99.90
9383;DHT22;4731;49.708;10.816;2023-07-20T10:20:17;24.90;99.90
9383;DHT22;4731;49.708;10.816;2023-07-20T10:22:49;24.90;99.90
9383;DHT22;4731;49.708;10.816;2023-07-20T10:25:18;25.00;99.90
9383;DHT22;4731;49.708;10.816;2023-07-20T10:27:47;25.00;99.90
9383;DHT22;4731;49.708;10.816;2023-07-20T10:30:14;24.70;99.90
9383;DHT22;4731;49.708;10.816;2023-07-20T10:32:42;24.60;99.90
9383;DHT22;4731;49.708;10.816;2023-07-20T10:35:13;24.80;99.90
9383;DHT22;4731;49.708;10.816;2023-07-20T10:37:50;25.30;99.90
9383;DHT22;4731;49.708;10.816;2023-07-20T10:40:31;25.80;99.90
9383;DHT22;4731;49.708;10.816;2023-07-20T10:43:03;26.50;99.90
9383;DHT22;4731;49.708;10.816;2023-07-20T10:45:34;27.10;99.90
9383;DHT22;4731;49.708;10.816;2023-07-20T10:48:03;27.50;99.90
9383;DHT22;4731;49.708;10.816;2023-07-20T10:50:32;27.80;99.90
9383;DHT22;4731;49.708;10.816;2023-07-20T10:53:10;27.90;99.90
9383;DHT22;4731;49.708;10.816;2023-07-20T10:55:38;27.00;99.90
9383;DHT22;4731;49.708;10.816;2023-07-20T10:58:08;26.70;99.90
9383;DHT22;4731;49.708;10.816;2023-07-20T11:00:36;27.00;99.90
9383;DHT22;4731;49.708;10.816;2023-07-20T11:03:02;26.80;99.90
9383;DHT22;4731;49.708;10.816;2023-07-20T11:05:37;27.40;99.90
9383;DHT22;4731;49.708;10.816;2023-07-20T11:08:09;27.70;99.90
9383;DHT22;4731;49.708;10.816;2023-07-20T11:10:36;27.90;99.90
9383;DHT22;4731;49.708;10.816;2023-07-20T11:13:23;27.40;99.90
9383;DHT22;4731;49.708;10.816;2023-07-20T11:16:04;27.20;99.90
9383;DHT22;4731;49.708;10.816;2023-07-20T11:18:34;27.20;99.90
9383;DHT22;4731;49.708;10.816;2023-07-20T11:21:07;27.30;99.90
9383;DHT22;4731;49.708;10.816;2023-07-20T11:23:38;27.90;99.90
9383;DHT22;4731;49.708;10.816;2023-07-20T11:26:04;27.70;99.90
9383;DHT22;4731;49.708;10.816;2023-07-20T11:28:32;27.50;99.90
9383;DHT22;4731;49.708;10.816;2023-07-20T11:31:00;27.40;99.90
9383;DHT22;4731;49.708;10.816;2023-07-20T11:33:27;27.50;99.90
9383;DHT22;4731;49.708;10.816;2023-07-20T11:35:55;27.20;99.90
9383;DHT22;4731;49.708;10.816;2023-07-20T11:38:21;26.60;99.90
9383;DHT22;4731;49.708;10.816;2023-07-20T11:40:51;26.20;99.90
9383;DHT22;4731;49.708;10.816;2023-07-20T11:43:18;26.20;99.90
9383;DHT22;4731;49.708;10.816;2023-07-20T11:45:46;26.00;99.90
9383;DHT22;4731;49.708;10.816;2023-07-20T11:48:17;26.20;99.90
9383;DHT22;4731;49.708;10.816;2023-07-20T11:50:44;25.90;99.90
9383;DHT22;4731;49.708;10.816;2023-07-20T11:53:13;25.80;99.90
9383;DHT22;4731;49.708;10.816;2023-07-20T11:55:40;25.80;99.90
9383;DHT22;4731;49.708;10.816;2023-07-20T11:58:09;23.90;99.90
9383;DHT22;4731;49.708;10.816;2023-07-20T12:00:37;27.20;99.90
9383;DHT22;4731;49.708;10.816;2023-07-20T12:03:06;28.20;99.90
9383;DHT22;4731;49.708;10.816;2023-07-20T12:05:34;28.90;99.90
9383;DHT22;4731;49.708;10.816;2023-07-20T12:08:01;29.20;99.90
9383;DHT22;4731;49.708;10.816;2023-07-20T12:10:28;29.00;99.90
9383;DHT22;4731;49.708;10.816;2023-07-20T12:13:01;28.30;99.60
9383;DHT22;4731;49.708;10.816;2023-07-20T12:15:30;27.80;99.90
9383;DHT22;4731;49.708;10.816;2023-07-20T12:17:58;27.50;99.90
9383;DHT22;4731;49.708;10.816;2023-07-20T12:20:28;27.00;99.90
9383;DHT22;4731;49.708;10.816;2023-07-20T12:22:58;26.90;99.90
9383;DHT22;4731;49.708;10.816;2023-07-20T12:25:42;27.30;99.90
9383;DHT22;4731;49.708;10.816;2023-07-20T12:28:10;27.20;99.90
9383;DHT22;4731;49.708;10.816;2023-07-20T12:30:39;27.70;99.90
9383;DHT22;4731;49.708;10.816;2023-07-20T12:33:06;27.80;99.60
9383;DHT22;4731;49.708;10.816;2023-07-20T12:35:33;27.90;99.80
9383;DHT22;4731;49.708;10.816;2023-07-20T12:38:00;27.90;99.90
9383;DHT22;4731;49.708;10.816;2023-07-20T12:40:27;27.70;99.90
9383;DHT22;4731;49.708;10.816;2023-07-20T12:42:54;27.80;99.90
9383;DHT22;4731;49.708;10.816;2023-07-20T12:45:21;27.80;99.90
9383;DHT22;4731;49.708;10.816;2023-07-20T12:47:49;27.80;99.90
9383;DHT22;4731;49.708;10.816;2023-07-20T12:50:16;27.70;99.80
9383;DHT22;4731;49.708;10.816;2023-07-20T12:52:42;27.40;99.90
9383;DHT22;4731;49.708;10.816;2023-07-20T12:55:10;26.50;99.90
9383;DHT22;4731;49.708;10.816;2023-07-20T12:57:37;26.40;99.90
9383;DHT22;4731;49.708;10.816;2023-07-20T13:00:06;26.50;99.90
9383;DHT22;4731;49.708;10.816;2023-07-20T13:02:33;26.80;99.90
9383;DHT22;4731;49.708;10.816;2023-07-20T13:05:01;27.10;99.90
9383;DHT22;4731;49.708;10.816;2023-07-20T13:07:32;27.60;99.90
9383;DHT22;4731;49.708;10.816;2023-07-20T13:10:00;26.90;99.90
9383;DHT22;4731;49.708;10.816;2023-07-20T13:12:28;26.90;99.90
9383;DHT22;4731;49.708;10.816;2023-07-20T13:14:55;26.70;99.90
9383;DHT22;4731;49.708;10.816;2023-07-20T13:17:22;26.60;99.90
9383;DHT22;4731;49.708;10.816;2023-07-20T13:19:50;26.80;99.90
9383;DHT22;4731;49.708;10.816;2023-07-20T13:22:18;26.70;99.90
9383;DHT22;4731;49.708;10.816;2023-07-20T13:24:46;26.60;99.90
9383;DHT22;4731;49.708;10.816;2023-07-20T13:27:14;26.40;99.90
9383;DHT22;4731;49.708;10.816;2023-07-20T13:29:41;26.60;99.90
9383;DHT22;4731;49.708;10.816;2023-07-20T13:32:09;26.50;99.90
9383;DHT22;4731;49.708;10.816;2023-07-20T13:34:37;26.80;99.90
9383;DHT22;4731;49.708;10.816;2023-07-20T13:37:04;27.00;99.90
9383;DHT22;4731;49.708;10.816;2023-07-20T13:39:32;27.10;99.90
9383;DHT22;4731;49.708;10.816;2023-07-20T13:41:59;27.20;99.90
9383;DHT22;4731;49.708;10.816;2023-07-20T13:44:27;27.00;99.90
9383;DHT22;4731;49.708;10.816;2023-07-20T13:46:54;27.30;99.90
9383;DHT22;4731;49.708;10.816;2023-07-20T13:49:21;27.60;99.90
9383;DHT22;4731;49.708;10.816;2023-07-20T13:51:48;27.60;99.90
9383;DHT22;4731;49.708;10.816;2023-07-20T13:54:15;27.60;99.90
9383;DHT22;4731;49.708;10.816;2023-07-20T13:56:43;27.40;99.90
9383;DHT22;4731;49.708;10.816;2023-07-20T13:59:10;27.50;99.90
9383;DHT22;4731;49.708;10.816;2023-07-20T14:01:37;27.60;99.90
9383;DHT22;4731;49.708;10.816;2023-07-20T14:04:04;27.50;99.50
9383;DHT22;4731;49.708;10.816;2023-07-20T14:06:32;27.20;98.80
9383;DHT22;4731;49.708;10.816;2023-07-20T14:08:59;27.20;99.10
9383;DHT22;4731;49.708;10.816;2023-07-20T14:11:26;27.30;98.80
9383;DHT22;4731;49.708;10.816;2023-07-20T14:13:55;27.30;99.20
9383;DHT22;4731;49.708;10.816;2023-07-20T14:16:24;27.40;98.20
9383;DHT22;4731;49.708;10.816;2023-07-20T14:18:51;27.30;97.90
9383;DHT22;4731;49.708;10.816;2023-07-20T14:21:20;27.10;98.00
9383;DHT22;4731;49.708;10.816;2023-07-20T14:23:48;27.30;98.90
9383;DHT22;4731;49.708;10.816;2023-07-20T14:26:15;27.20;98.00
9383;DHT22;4731;49.708;10.816;2023-07-20T14:28:42;27.00;98.00
9383;DHT22;4731;49.708;10.816;2023-07-20T14:33:37;27.10;98.90
9383;DHT22;4731;49.708;10.816;2023-07-20T14:36:05;27.20;99.00
9383;DHT22;4731;49.708;10.816;2023-07-20T14:38:34;27.40;97.80
9383;DHT22;4731;49.708;10.816;2023-07-20T14:41:01;27.30;97.00
9383;DHT22;4731;49.708;10.816;2023-07-20T14:43:28;27.60;97.00
9383;DHT22;4731;49.708;10.816;2023-07-20T14:45:56;27.30;97.40
9383;DHT22;4731;49.708;10.816;2023-07-20T14:48:28;26.80;98.60
9383;DHT22;4731;49.708;10.816;2023-07-20T14:50:55;26.70;98.70
9383;DHT22;4731;49.708;10.816;2023-07-20T14:53:22;26.70;99.90
9383;DHT22;4731;49.708;10.816;2023-07-20T14:55:49;26.80;99.90
9383;DHT22;4731;49.708;10.816;2023-07-20T14:58:16;27.00;99.50
9383;DHT22;4731;49.708;10.816;2023-07-20T15:00:43;27.00;99.70
9383;DHT22;4731;49.708;10.816;2023-07-20T15:03:10;27.00;99.50
9383;DHT22;4731;49.708;10.816;2023-07-20T15:05:39;26.90;98.50
9383;DHT22;4731;49.708;10.816;2023-07-20T15:08:06;26.60;97.70
9383;DHT22;4731;49.708;10.816;2023-07-20T15:10:34;26.60;98.60
9383;DHT22;4731;49.708;10.816;2023-07-20T15:13:00;26.40;98.40
9383;DHT22;4731;49.708;10.816;2023-07-20T15:15:28;26.50;97.30
9383;DHT22;4731;49.708;10.816;2023-07-20T15:17:55;26.50;97.80
9383;DHT22;4731;49.708;10.816;2023-07-20T15:20:22;26.60;98.20
9383;DHT22;4731;49.708;10.816;2023-07-20T15:22:50;26.30;97.60
9383;DHT22;4731;49.708;10.816;2023-07-20T15:25:17;26.60;98.30
9383;DHT22;4731;49.708;10.816;2023-07-20T15:27:44;26.80;97.70
9383;DHT22;4731;49.708;10.816;2023-07-20T15:30:11;26.70;97.90
9383;DHT22;4731;49.708;10.816;2023-07-20T15:32:40;26.70;98.40
9383;DHT22;4731;49.708;10.816;2023-07-20T15:35:09;26.70;98.60
9383;DHT22;4731;49.708;10.816;2023-07-20T15:37:36;26.50;98.90
9383;DHT22;4731;49.708;10.816;2023-07-20T15:40:06;26.40;98.80
9383;DHT22;4731;49.708;10.816;2023-07-20T15:42:33;26.30;99.70
9383;DHT22;4731;49.708;10.816;2023-07-20T15:45:00;26.20;99.80
9383;DHT22;4731;49.708;10.816;2023-07-20T15:47:27;26.20;99.90
9383;DHT22;4731;49.708;10.816;2023-07-20T15:49:53;26.30;99.90
9383;DHT22;4731;49.708;10.816;2023-07-20T15:52:20;26.50;99.90
9383;DHT22;4731;49.708;10.816;2023-07-20T15:54:48;26.60;99.90